Time;durP1;ratioP1;P1;durP2;ratioP2;P2;SDS_P1;SDS_P2;PMS_P1;PMS_P2;Temp;Humidity;BMP_temperature;BMP_pressure;BME280_temperature;BME280_humidity;BME280_pressure;Samples;Min_cycle;Max_cycle;Signal;HPM_P1;HPM_P2
2023/05/20 00:03:08;;;;;;;;;;;;;;;12.61;76.13;102346.44;10584526;28;19924;-66
2023/05/20 00:08:10;;;;;;;;;;;;;;;12.55;76.12;102346.69;10584639;28;19930;-66
2023/05/20 00:13:12;;;;;;;;;;;;;;;12.68;75.61;102349.66;10585259;28;20370;-67
2023/05/20 00:18:15;;;;;;;;;;;;;;;12.57;75.85;102350.09;10583879;28;20298;-67
2023/05/20 00:23:17;;;;;;;;;;;;;;;12.32;76.11;102349.38;10584715;28;20366;-67
2023/05/20 00:28:19;;;;;;;;;;;;;;;12.53;76.51;102352.94;10583463;28;19924;-67
2023/05/20 00:33:22;;;;;;;;;;;;;;;12.33;77.52;102351.94;10585095;28;19930;-66
2023/05/20 00:38:24;;;;;;;;;;;;;;;12.30;77.69;102352.06;10584284;28;20393;-66
2023/05/20 00:43:26;;;;;;;;;;;;;;;12.45;77.53;102350.59;10582608;28;20290;-67
2023/05/20 00:48:30;;;;;;;;;;;;;;;12.42;77.96;102345.47;10583185;28;20267;-67
2023/05/20 00:53:33;;;;;;;;;;;;;;;12.26;78.56;102340.84;10566213;28;19928;-67
2023/05/20 00:58:36;;;;;;;;;;;;;;;12.04;80.66;102342.63;10564780;28;19930;-67
2023/05/20 01:03:39;;;;;;;;;;;;;;;11.84;81.32;102344.19;10565375;28;19924;-67
2023/05/20 01:08:41;;;;;;;;;;;;;;;11.93;81.21;102344.78;10582826;28;19923;-67
2023/05/20 01:13:47;;;;;;;;;;;;;;;11.88;83.11;102339.66;10581433;28;19934;-67
2023/05/20 01:18:49;;;;;;;;;;;;;;;12.00;83.04;102334.00;10582168;28;19924;-67
2023/05/20 01:23:52;;;;;;;;;;;;;;;11.78;82.00;102340.94;10564985;28;20030;-68
2023/05/20 01:28:56;;;;;;;;;;;;;;;12.34;81.43;102332.66;10537936;28;20397;-66
2023/05/20 01:33:58;;;;;;;;;;;;;;;12.45;82.11;102329.59;10540208;28;19924;-67
2023/05/20 01:39:01;;;;;;;;;;;;;;;12.04;83.73;102330.34;10530742;28;19924;-67
2023/05/20 01:44:03;;;;;;;;;;;;;;;12.17;83.56;102333.34;10561847;28;19928;-67
2023/05/20 01:49:05;;;;;;;;;;;;;;;12.10;82.26;102328.38;10580826;28;19994;-67
2023/05/20 01:54:08;;;;;;;;;;;;;;;12.06;81.50;102325.03;10582467;28;19924;-67
2023/05/20 01:59:10;;;;;;;;;;;;;;;12.00;84.36;102317.38;10581531;28;19924;-67
2023/05/20 02:04:12;;;;;;;;;;;;;;;11.98;84.08;102314.81;10582194;28;19924;-67
2023/05/20 02:09:15;;;;;;;;;;;;;;;11.82;85.86;102319.78;10579168;28;19931;-67
2023/05/20 02:14:17;;;;;;;;;;;;;;;11.52;87.60;102321.78;10563286;28;19924;-66
2023/05/20 02:19:22;;;;;;;;;;;;;;;11.83;87.12;102324.09;10579817;28;20382;-66
2023/05/20 02:24:24;;;;;;;;;;;;;;;11.77;85.87;102316.47;10581573;28;19924;-66
2023/05/20 02:29:27;;;;;;;;;;;;;;;11.73;86.97;102311.41;10580315;28;20408;-67
2023/05/20 02:34:30;;;;;;;;;;;;;;;11.46;86.50;102301.88;10579760;28;20317;-67
2023/05/20 02:39:32;;;;;;;;;;;;;;;11.41;89.01;102311.69;10580227;28;20007;-67
2023/05/20 02:44:35;;;;;;;;;;;;;;;11.43;87.24;102311.63;10587067;28;19930;-67
2023/05/20 02:49:37;;;;;;;;;;;;;;;11.02;90.03;102303.50;10587747;28;19923;-67
2023/05/20 02:54:39;;;;;;;;;;;;;;;10.83;92.32;102309.38;10588906;28;19923;-67
2023/05/20 02:59:41;;;;;;;;;;;;;;;10.59;94.92;102304.06;10586656;28;19971;-67
2023/05/20 03:04:45;;;;;;;;;;;;;;;10.59;96.18;102300.56;10588811;28;19964;-67
2023/05/20 03:09:48;;;;;;;;;;;;;;;10.72;94.34;102296.63;10587216;28;19924;-68
2023/05/20 03:14:53;;;;;;;;;;;;;;;10.53;95.63;102295.56;10546099;28;19931;-67
2023/05/20 03:19:56;;;;;;;;;;;;;;;10.43;96.09;102297.63;10568528;28;19946;-67
2023/05/20 03:25:01;;;;;;;;;;;;;;;10.28;97.07;102301.56;10586588;28;19924;-67
2023/05/20 03:30:03;;;;;;;;;;;;;;;10.21;97.28;102300.03;10586582;28;19928;-67
2023/05/20 03:35:07;;;;;;;;;;;;;;;10.09;98.37;102305.69;10586525;28;19971;-67
2023/05/20 03:40:09;;;;;;;;;;;;;;;10.18;98.99;102310.59;10586742;28;20286;-68
2023/05/20 03:45:13;;;;;;;;;;;;;;;10.14;97.86;102306.38;10585173;28;20408;-67
2023/05/20 03:50:15;;;;;;;;;;;;;;;10.25;98.15;102304.25;10587001;28;19931;-67
2023/05/20 03:55:19;;;;;;;;;;;;;;;10.26;99.39;102310.38;10584569;28;19924;-67
2023/05/20 04:00:21;;;;;;;;;;;;;;;10.29;98.77;102311.13;10585962;28;20325;-68
2023/05/20 04:05:24;;;;;;;;;;;;;;;10.19;99.71;102307.09;10584553;28;19928;-67
2023/05/20 04:10:26;;;;;;;;;;;;;;;10.44;97.80;102303.69;10586167;28;19973;-67
2023/05/20 04:15:28;;;;;;;;;;;;;;;10.24;100.00;102318.28;10565574;28;19923;-67
2023/05/20 04:20:31;;;;;;;;;;;;;;;10.10;100.00;102317.84;10585723;28;19923;-67
2023/05/20 04:25:34;;;;;;;;;;;;;;;10.17;100.00;102308.88;10581564;28;20307;-67
2023/05/20 04:30:37;;;;;;;;;;;;;;;10.11;100.00;102307.31;10585184;28;19930;-68
2023/05/20 04:35:40;;;;;;;;;;;;;;;10.48;100.00;102311.41;10583033;28;20293;-68
2023/05/20 04:40:42;;;;;;;;;;;;;;;10.49;100.00;102309.63;10584992;28;19924;-67
2023/05/20 04:45:46;;;;;;;;;;;;;;;10.72;100.00;102311.50;10583632;28;19938;-68
2023/05/20 04:50:49;;;;;;;;;;;;;;;10.81;98.83;102313.81;10584449;28;19974;-67
2023/05/20 04:55:55;;;;;;;;;;;;;;;10.83;97.08;102313.78;10583213;28;19923;-67
2023/05/20 05:00:57;;;;;;;;;;;;;;;10.87;96.89;102310.13;10583538;28;19924;-67
2023/05/20 05:06:00;;;;;;;;;;;;;;;11.25;97.63;102310.56;10581508;28;20280;-67
2023/05/20 05:11:04;;;;;;;;;;;;;;;11.53;92.66;102315.63;10582697;28;19927;-67
2023/05/20 05:16:06;;;;;;;;;;;;;;;11.44;93.50;102303.69;10582757;28;19930;-67
2023/05/20 05:21:08;;;;;;;;;;;;;;;11.80;92.72;102302.38;10564686;28;19983;-67
2023/05/20 05:26:11;;;;;;;;;;;;;;;11.49;94.68;102299.13;10579868;28;20290;-67
2023/05/20 05:31:13;;;;;;;;;;;;;;;11.84;92.76;102294.31;10582536;28;19950;-67
2023/05/20 05:36:15;;;;;;;;;;;;;;;11.86;93.86;102286.41;10581805;28;19957;-67
2023/05/20 05:41:17;;;;;;;;;;;;;;;11.96;92.36;102285.16;10533820;22;19924;-67
2023/05/20 05:46:20;;;;;;;;;;;;;;;12.07;90.01;102290.00;10538881;28;19924;-67
2023/05/20 05:51:24;;;;;;;;;;;;;;;12.25;89.91;102285.75;10540128;28;19995;-67
2023/05/20 05:56:26;;;;;;;;;;;;;;;12.48;88.01;102278.72;10537071;28;20355;-67
2023/05/20 06:01:28;;;;;;;;;;;;;;;12.38;87.60;102279.06;10521279;28;19924;-67
2023/05/20 06:06:30;;;;;;;;;;;;;;;12.84;86.19;102278.91;10540370;28;20026;-68
2023/05/20 06:11:33;;;;;;;;;;;;;;;12.63;87.22;102273.66;10539606;28;19924;-68
2023/05/20 06:16:35;;;;;;;;;;;;;;;12.97;85.85;102272.19;10541178;28;19946;-70
2023/05/20 06:21:37;;;;;;;;;;;;;;;12.96;85.03;102275.75;10546900;28;19970;-69
2023/05/20 06:26:40;;;;;;;;;;;;;;;13.32;83.66;102269.78;10529508;28;19930;-68
2023/05/20 06:31:42;;;;;;;;;;;;;;;13.32;84.87;102272.41;10548214;28;20262;-68
2023/05/20 06:36:44;;;;;;;;;;;;;;;13.54;81.20;102260.91;10548405;28;19934;-68
2023/05/20 06:41:46;;;;;;;;;;;;;;;13.86;82.91;102254.13;10547212;28;19931;-68
2023/05/20 06:46:49;;;;;;;;;;;;;;;13.96;81.74;102240.53;10547935;28;19923;-68
2023/05/20 06:51:51;;;;;;;;;;;;;;;14.48;77.64;102244.03;10547929;28;19971;-69
2023/05/20 06:56:53;;;;;;;;;;;;;;;14.38;79.80;102237.53;10547303;28;20324;-68
2023/05/20 07:01:55;;;;;;;;;;;;;;;14.91;78.07;102250.69;10547360;28;19924;-67
2023/05/20 07:06:58;;;;;;;;;;;;;;;14.92;76.88;102247.13;10546369;28;19931;-68
2023/05/20 07:12:00;;;;;;;;;;;;;;;15.52;73.32;102242.09;10547274;28;19930;-68
2023/05/20 07:17:03;;;;;;;;;;;;;;;16.13;70.70;102231.69;10546763;28;19930;-68
2023/05/20 07:22:05;;;;;;;;;;;;;;;16.51;71.08;102237.34;10528122;28;19924;-68
2023/05/20 07:27:07;;;;;;;;;;;;;;;16.79;68.87;102225.09;10544878;28;20363;-68
2023/05/20 07:32:10;;;;;;;;;;;;;;;17.12;67.26;102229.28;10544473;28;19924;-68
2023/05/20 07:37:12;;;;;;;;;;;;;;;16.92;65.91;102219.09;10545239;28;20333;-67
2023/05/20 07:42:14;;;;;;;;;;;;;;;17.51;64.25;102203.88;10545158;28;19934;-68
2023/05/20 07:47:17;;;;;;;;;;;;;;;17.92;63.13;102202.13;10526690;28;20401;-68
2023/05/20 07:52:19;;;;;;;;;;;;;;;17.69;62.61;102203.66;10545081;28;19931;-69
2023/05/20 07:57:22;;;;;;;;;;;;;;;18.34;62.04;102210.81;10544068;28;19931;-68
2023/05/20 08:02:24;;;;;;;;;;;;;;;17.71;61.04;102199.94;10545324;28;19928;-68
2023/05/20 08:07:27;;;;;;;;;;;;;;;18.45;59.23;102212.75;10527025;28;19931;-68
2023/05/20 08:12:29;;;;;;;;;;;;;;;18.20;59.08;102193.19;10526605;28;19930;-69
2023/05/20 08:17:31;;;;;;;;;;;;;;;18.98;57.69;102194.94;10544526;28;19930;-68
2023/05/20 08:22:36;;;;;;;;;;;;;;;19.67;58.96;102189.06;10526011;28;19985;-68
2023/05/20 08:27:38;;;;;;;;;;;;;;;19.77;55.48;102198.09;10543015;28;19924;-69
2023/05/20 08:32:41;;;;;;;;;;;;;;;20.23;55.18;102180.47;10510969;28;19930;-69
2023/05/20 08:37:43;;;;;;;;;;;;;;;19.54;55.14;102183.81;10541769;28;19963;-68
2023/05/20 08:42:46;;;;;;;;;;;;;;;19.92;55.10;102179.28;10541601;28;19924;-68
2023/05/20 08:47:49;;;;;;;;;;;;;;;19.65;53.80;102169.72;10523729;28;20401;-71
2023/05/20 08:52:52;;;;;;;;;;;;;;;20.01;53.88;102171.47;10523302;28;19924;-72
2023/05/20 08:57:54;;;;;;;;;;;;;;;19.99;55.48;102159.28;10507324;28;19928;-72
2023/05/20 09:02:57;;;;;;;;;;;;;;;19.44;52.51;102164.19;10506539;28;20286;-71
2023/05/20 09:08:05;;;;;;;;;;;;;;;21.00;52.21;102155.00;10522179;28;19924;-71
2023/05/20 09:13:08;;;;;;;;;;;;;;;20.80;51.86;102157.44;10519609;28;19924;-71
2023/05/20 09:18:10;;;;;;;;;;;;;;;20.82;51.84;102146.69;10518411;28;19947;-72
2023/05/20 09:23:13;;;;;;;;;;;;;;;21.19;51.53;102144.56;10522264;28;19967;-72
2023/05/20 09:28:16;;;;;;;;;;;;;;;21.61;49.64;102144.69;10540473;28;20011;-72
2023/05/20 09:33:18;;;;;;;;;;;;;;;21.22;50.43;102138.16;10539763;28;19968;-74
2023/05/20 09:38:21;;;;;;;;;;;;;;;20.83;50.64;102140.38;10539361;28;20388;-72
2023/05/20 09:43:23;;;;;;;;;;;;;;;22.33;49.76;102137.75;10521834;28;20435;-69
2023/05/20 09:48:26;;;;;;;;;;;;;;;22.46;49.59;102134.88;10519829;28;19924;-68
2023/05/20 09:53:28;;;;;;;;;;;;;;;21.96;48.40;102124.88;10537217;28;20416;-68
2023/05/20 09:58:31;;;;;;;;;;;;;;;23.46;47.66;102127.81;10519577;28;19924;-68
2023/05/20 10:03:34;;;;;;;;;;;;;;;24.32;45.74;102124.31;10519941;28;19931;-69
2023/05/20 10:08:58;;;;;;;;;;;;;;;24.02;45.57;102116.38;10538151;28;19952;-69
2023/05/20 10:14:13;;;;;;;;;;;;;;;23.33;47.48;102120.94;10517772;28;20462;-69
2023/05/20 10:19:15;;;;;;;;;;;;;;;23.29;47.16;102106.16;10534056;28;19932;-69
2023/05/20 10:24:27;;;;;;;;;;;;;;;23.28;47.69;102093.75;10534010;28;20336;-69
2023/05/20 10:29:48;;;;;;;;;;;;;;;24.71;43.93;102087.53;10513339;28;20367;-69
2023/05/20 10:34:51;;;;;;;;;;;;;;;23.98;44.54;102088.25;10523728;28;20078;-69
2023/05/20 10:40:05;;;;;;;;;;;;;;;25.35;44.39;102077.66;10492164;28;19924;-69
2023/05/20 10:45:08;;;;;;;;;;;;;;;25.95;45.37;102081.47;10502934;28;19929;-69
2023/05/20 10:50:13;;;;;;;;;;;;;;;23.14;43.58;102067.47;10511965;28;19924;-69
2023/05/20 10:55:18;;;;;;;;;;;;;;;22.67;48.15;102083.25;10518704;28;19928;-68
2023/05/20 11:00:20;;;;;;;;;;;;;;;24.05;44.29;102072.44;10519800;28;19924;-68
2023/05/20 11:05:23;;;;;;;;;;;;;;;23.12;47.71;102064.94;10539332;28;19924;-69
2023/05/20 11:10:25;;;;;;;;;;;;;;;22.87;46.90;102076.13;10544494;28;20401;-69
2023/05/20 11:15:29;;;;;;;;;;;;;;;23.19;46.41;102062.56;10543603;28;19932;-69
2023/05/20 11:20:33;;;;;;;;;;;;;;;23.63;46.57;102062.09;10527295;28;19924;-68
2023/05/20 11:25:36;;;;;;;;;;;;;;;24.97;44.43;102050.16;10543195;28;19932;-69
2023/05/20 11:30:41;;;;;;;;;;;;;;;24.66;43.98;102045.16;10543729;28;19977;-69
2023/05/20 11:35:48;;;;;;;;;;;;;;;25.17;42.73;102044.66;10525689;28;20286;-69
2023/05/20 11:40:51;;;;;;;;;;;;;;;25.93;43.40;102043.19;10544163;28;20387;-69
2023/05/20 11:45:55;;;;;;;;;;;;;;;23.30;45.44;102042.84;10526390;28;19924;-69
2023/05/20 11:50:57;;;;;;;;;;;;;;;24.65;42.52;102029.25;10526717;28;19924;-69
2023/05/20 11:56:02;;;;;;;;;;;;;;;26.44;42.91;102038.75;10542566;28;20294;-69
2023/05/20 12:01:04;;;;;;;;;;;;;;;25.58;41.77;102036.94;10525580;28;20031;-69
2023/05/20 12:06:22;;;;;;;;;;;;;;;23.28;45.89;102031.47;10528333;28;19955;-73
2023/05/20 12:11:24;;;;;;;;;;;;;;;23.77;46.36;102024.25;10542684;28;19990;-72
2023/05/20 12:16:27;;;;;;;;;;;;;;;24.07;45.74;102022.31;10542323;28;20285;-73
2023/05/20 12:21:30;;;;;;;;;;;;;;;23.08;46.05;102020.81;10523844;28;19924;-73
2023/05/20 12:26:34;;;;;;;;;;;;;;;22.06;48.54;102039.63;10542524;28;19928;-73
2023/05/20 12:31:36;;;;;;;;;;;;;;;22.17;46.96;102028.00;10541954;28;19924;-73
2023/05/20 12:36:38;;;;;;;;;;;;;;;22.88;47.15;102011.91;10524010;28;20420;-73
2023/05/20 12:41:41;;;;;;;;;;;;;;;22.17;46.99;102020.00;10522067;28;19931;-73
2023/05/20 12:46:43;;;;;;;;;;;;;;;21.29;48.82;102000.81;10539464;28;19978;-72
2023/05/20 12:51:45;;;;;;;;;;;;;;;22.69;46.28;102006.53;10523532;28;19932;-73
2023/05/20 12:56:48;;;;;;;;;;;;;;;22.83;47.94;101990.13;10539664;28;19930;-73
2023/05/20 13:01:50;;;;;;;;;;;;;;;22.16;48.50;102005.00;10523286;28;19924;-73
2023/05/20 13:06:52;;;;;;;;;;;;;;;21.59;48.00;101993.91;10539784;28;19931;-73
2023/05/20 13:11:55;;;;;;;;;;;;;;;22.02;49.84;101998.19;10522075;28;20367;-74
2023/05/20 13:16:57;;;;;;;;;;;;;;;22.65;47.02;101987.31;10522265;28;20271;-75
2023/05/20 13:21:59;;;;;;;;;;;;;;;22.29;48.59;101978.94;10541272;28;19930;-73
2023/05/20 13:27:02;;;;;;;;;;;;;;;22.52;46.36;101971.53;10539516;28;19930;-73
2023/05/20 13:32:04;;;;;;;;;;;;;;;22.99;47.17;101969.03;10539727;28;19964;-73
2023/05/20 13:37:07;;;;;;;;;;;;;;;22.11;48.54;101967.19;10540668;28;19924;-73
2023/05/20 13:42:09;;;;;;;;;;;;;;;22.68;46.02;101957.66;10521893;28;19928;-74
2023/05/20 13:47:11;;;;;;;;;;;;;;;24.02;46.79;101957.72;10539372;28;19962;-73
2023/05/20 13:52:13;;;;;;;;;;;;;;;23.52;47.79;101949.03;10537922;28;19970;-73
2023/05/20 13:57:16;;;;;;;;;;;;;;;23.04;47.55;101941.06;10519433;28;19969;-74
2023/05/20 14:02:18;;;;;;;;;;;;;;;22.81;47.67;101928.00;10538762;28;19931;-73
2023/05/20 14:07:20;;;;;;;;;;;;;;;23.58;46.16;101918.19;10539521;28;20446;-73
2023/05/20 14:12:23;;;;;;;;;;;;;;;23.20;45.80;101909.31;10539297;28;20286;-74
2023/05/20 14:17:25;;;;;;;;;;;;;;;23.05;46.16;101908.88;10520335;28;20454;-74
2023/05/20 14:22:27;;;;;;;;;;;;;;;23.68;45.26;101907.47;10537412;28;20397;-74
2023/05/20 14:27:29;;;;;;;;;;;;;;;22.97;48.52;101909.59;10505081;28;19924;-74
2023/05/20 14:32:32;;;;;;;;;;;;;;;22.15;46.95;101900.09;10521568;28;19925;-73
2023/05/20 14:37:34;;;;;;;;;;;;;;;22.74;49.78;101895.69;10520363;28;19924;-74
2023/05/20 14:42:37;;;;;;;;;;;;;;;23.14;48.06;101891.19;10547280;28;19931;-67
2023/05/20 14:47:39;;;;;;;;;;;;;;;23.67;45.80;101881.69;10525419;28;20370;-67
2023/05/20 14:52:41;;;;;;;;;;;;;;;24.47;43.19;101874.75;10546622;28;20011;-67
2023/05/20 14:57:43;;;;;;;;;;;;;;;23.76;44.49;101878.16;10545437;28;20379;-67
2023/05/20 15:02:46;;;;;;;;;;;;;;;22.63;45.62;101875.34;10527855;28;20410;-67
2023/05/20 15:07:49;;;;;;;;;;;;;;;23.38;45.74;101874.66;10541133;28;19931;-67
2023/05/20 15:12:52;;;;;;;;;;;;;;;23.55;47.00;101862.34;10526521;28;20003;-66
2023/05/20 15:17:55;;;;;;;;;;;;;;;21.55;48.98;101860.06;10545971;28;20023;-66
2023/05/20 15:22:57;;;;;;;;;;;;;;;22.60;47.31;101856.09;10542519;28;19924;-66
2023/05/20 15:28:01;;;;;;;;;;;;;;;22.42;47.35;101847.94;10544825;28;19933;-66
2023/05/20 15:33:03;;;;;;;;;;;;;;;22.04;47.32;101855.75;10544453;28;19947;-66
2023/05/20 15:38:05;;;;;;;;;;;;;;;23.17;44.73;101853.50;10544684;28;19928;-66
2023/05/20 15:43:08;;;;;;;;;;;;;;;23.45;45.54;101851.72;10542790;28;19946;-66
2023/05/20 15:48:11;;;;;;;;;;;;;;;23.48;45.15;101840.72;10526198;28;19924;-66
2023/05/20 15:53:13;;;;;;;;;;;;;;;23.83;44.20;101841.00;10543694;28;19963;-66
2023/05/20 15:58:15;;;;;;;;;;;;;;;23.97;43.49;101832.44;10524967;28;19947;-66
2023/05/20 16:03:18;;;;;;;;;;;;;;;23.54;44.24;101840.13;10526199;28;20014;-66
2023/05/20 16:08:22;;;;;;;;;;;;;;;24.04;43.99;101844.25;10543285;28;19924;-66
2023/05/20 16:13:24;;;;;;;;;;;;;;;23.17;44.05;101837.47;10543599;28;19931;-66
2023/05/20 16:18:30;;;;;;;;;;;;;;;23.85;44.62;101839.84;10543515;28;19924;-66
2023/05/20 16:23:32;;;;;;;;;;;;;;;23.35;45.87;101848.22;10524250;28;19924;-66
2023/05/20 16:28:35;;;;;;;;;;;;;;;23.87;45.44;101837.88;10525180;28;19930;-66
2023/05/20 16:33:37;;;;;;;;;;;;;;;22.97;45.50;101828.66;10523349;28;19931;-66
2023/05/20 16:38:39;;;;;;;;;;;;;;;23.37;45.37;101835.59;10541246;28;19924;-66
2023/05/20 16:43:42;;;;;;;;;;;;;;;23.61;45.36;101840.38;10542497;28;19924;-66
2023/05/20 16:48:44;;;;;;;;;;;;;;;22.64;45.59;101838.81;10541606;28;20378;-66
2023/05/20 16:53:46;;;;;;;;;;;;;;;22.52;45.67;101832.78;10539642;28;19924;-66
2023/05/20 16:58:49;;;;;;;;;;;;;;;22.41;47.61;101844.44;10540965;28;19928;-66
2023/05/20 17:03:55;;;;;;;;;;;;;;;21.50;47.00;101848.97;10540201;28;21619;-67
2023/05/20 17:08:58;;;;;;;;;;;;;;;21.66;48.96;101851.16;10539671;28;20401;-66
2023/05/20 17:14:00;;;;;;;;;;;;;;;20.85;47.71;101849.19;10522852;28;19924;-67
2023/05/20 17:19:02;;;;;;;;;;;;;;;21.81;48.19;101849.78;10523313;28;19932;-66
2023/05/20 17:24:05;;;;;;;;;;;;;;;21.12;49.60;101853.97;10538829;28;20333;-66
2023/05/20 17:29:07;;;;;;;;;;;;;;;20.36;49.36;101863.91;10538747;28;20397;-66
2023/05/20 17:34:10;;;;;;;;;;;;;;;19.75;49.53;101862.53;10522172;28;19924;-67
2023/05/20 17:39:12;;;;;;;;;;;;;;;20.35;49.93;101870.16;10539868;28;19924;-67
2023/05/20 17:44:15;;;;;;;;;;;;;;;20.26;49.67;101874.44;10540453;28;19931;-67
2023/05/20 17:49:17;;;;;;;;;;;;;;;20.07;50.64;101883.03;10539133;28;19930;-66
2023/05/20 17:54:19;;;;;;;;;;;;;;;20.16;51.15;101884.13;10545002;22;19931;-67
2023/05/20 17:59:21;;;;;;;;;;;;;;;19.99;50.88;101888.16;10521813;28;20006;-68
2023/05/20 18:04:23;;;;;;;;;;;;;;;19.41;52.39;101897.03;10519756;28;19930;-68
2023/05/20 18:09:26;;;;;;;;;;;;;;;19.24;51.64;101897.50;10539276;28;20293;-68
2023/05/20 18:14:28;;;;;;;;;;;;;;;19.30;53.33;101897.03;10544503;28;20031;-68
2023/05/20 18:19:32;;;;;;;;;;;;;;;19.31;53.17;101888.09;10546550;28;19931;-67
2023/05/20 18:24:34;;;;;;;;;;;;;;;19.15;53.41;101887.59;10543254;28;20386;-67
2023/05/20 18:29:37;;;;;;;;;;;;;;;19.02;54.72;101893.00;10544219;28;20026;-67
2023/05/20 18:34:39;;;;;;;;;;;;;;;19.14;54.93;101885.91;10529671;28;19931;-67
2023/05/20 18:39:41;;;;;;;;;;;;;;;18.82;56.74;101875.91;10547655;28;19931;-67
2023/05/20 18:44:43;;;;;;;;;;;;;;;18.56;57.90;101870.75;10513917;28;19932;-67
2023/05/20 18:49:46;;;;;;;;;;;;;;;18.38;58.33;101871.13;10528487;28;20283;-67
2023/05/20 18:54:48;;;;;;;;;;;;;;;18.34;58.75;101880.28;10525327;28;19928;-67
2023/05/20 18:59:50;;;;;;;;;;;;;;;18.30;58.45;101872.66;10543112;28;19924;-67
2023/05/20 19:04:53;;;;;;;;;;;;;;;18.01;60.09;101875.63;10544139;28;19932;-67
2023/05/20 19:09:55;;;;;;;;;;;;;;;18.03;60.09;101870.22;10590112;27;19977;-67
2023/05/20 19:14:58;;;;;;;;;;;;;;;18.14;60.21;101879.09;10607009;27;20286;-68
2023/05/20 19:20:00;;;;;;;;;;;;;;;18.09;61.52;101875.91;10622155;27;20375;-68
2023/05/20 19:25:04;;;;;;;;;;;;;;;17.86;61.51;101879.34;10559249;27;19924;-68
2023/05/20 19:30:06;;;;;;;;;;;;;;;17.79;61.31;101885.06;10630278;27;19923;-67
2023/05/20 19:35:11;;;;;;;;;;;;;;;17.64;62.64;101891.44;10625236;27;19927;-67
2023/05/20 19:40:14;;;;;;;;;;;;;;;17.72;64.05;101883.81;10615732;27;19923;-67
2023/05/20 19:45:16;;;;;;;;;;;;;;;17.61;61.63;101886.34;10602151;27;19946;-67
2023/05/20 19:50:18;;;;;;;;;;;;;;;17.41;62.61;101901.81;10629446;27;19923;-67
2023/05/20 19:55:20;;;;;;;;;;;;;;;17.43;62.86;101901.72;10613405;27;19924;-68
2023/05/20 20:00:23;;;;;;;;;;;;;;;17.41;62.17;101907.09;10613574;27;19923;-67
2023/05/20 20:05:25;;;;;;;;;;;;;;;17.50;63.35;101895.06;10572643;27;20011;-67
2023/05/20 20:10:31;;;;;;;;;;;;;;;17.52;62.63;101893.16;10610366;27;20348;-68
2023/05/20 20:15:33;;;;;;;;;;;;;;;17.29;64.34;101893.88;10589898;27;19924;-68
2023/05/20 20:20:38;;;;;;;;;;;;;;;17.29;64.84;101899.19;10622977;27;19982;-67
2023/05/20 20:25:41;;;;;;;;;;;;;;;17.30;65.31;101901.72;10594738;27;19936;-68
2023/05/20 20:30:44;;;;;;;;;;;;;;;16.88;65.45;101898.38;10594711;27;19931;-68
2023/05/20 20:35:46;;;;;;;;;;;;;;;16.84;65.55;101892.41;10626977;27;19931;-68
2023/05/20 20:40:52;;;;;;;;;;;;;;;16.66;67.19;101894.47;10610244;27;19924;-68
2023/05/20 20:45:55;;;;;;;;;;;;;;;16.63;67.79;101897.31;10627102;27;20022;-68
2023/05/20 20:50:57;;;;;;;;;;;;;;;16.87;67.56;101896.69;10609057;27;19980;-68
2023/05/20 20:56:00;;;;;;;;;;;;;;;16.74;66.57;101891.31;10612540;27;19930;-67
2023/05/20 21:01:03;;;;;;;;;;;;;;;16.77;67.77;101900.84;10612542;27;20026;-68
2023/05/20 21:06:06;;;;;;;;;;;;;;;16.74;67.81;101901.88;10605431;27;20398;-68
2023/05/20 21:11:08;;;;;;;;;;;;;;;16.56;68.38;101887.22;10589906;27;19924;-68
2023/05/20 21:16:10;;;;;;;;;;;;;;;16.19;69.91;101892.25;10617506;27;19930;-67
2023/05/20 21:21:13;;;;;;;;;;;;;;;16.15;70.13;101886.31;10592696;27;19923;-67
2023/05/20 21:26:16;;;;;;;;;;;;;;;16.17;70.20;101887.06;10625693;27;19929;-67
2023/05/20 21:31:18;;;;;;;;;;;;;;;15.95;70.55;101884.94;10589840;27;20411;-67
2023/05/20 21:36:20;;;;;;;;;;;;;;;16.12;71.02;101881.22;10602637;27;19923;-67
2023/05/20 21:41:23;;;;;;;;;;;;;;;16.05;70.83;101867.56;10607088;27;19931;-67
2023/05/20 21:46:25;;;;;;;;;;;;;;;15.82;71.56;101869.03;10607034;27;19924;-67
2023/05/20 21:51:27;;;;;;;;;;;;;;;15.72;71.36;101866.09;10608980;27;19980;-67
2023/05/20 21:56:30;;;;;;;;;;;;;;;15.47;73.54;101869.38;10613913;27;19930;-67
2023/05/20 22:01:32;;;;;;;;;;;;;;;15.59;73.80;101865.97;10619136;28;19930;-67
2023/05/20 22:06:34;;;;;;;;;;;;;;;15.37;75.32;101860.34;10605867;28;19931;-68
2023/05/20 22:11:37;;;;;;;;;;;;;;;15.32;75.19;101851.84;10605748;28;20308;-67
2023/05/20 22:16:41;;;;;;;;;;;;;;;15.10;76.85;101858.41;10618964;28;19924;-67
2023/05/20 22:21:44;;;;;;;;;;;;;;;15.17;76.45;101850.97;10624349;28;19923;-67
2023/05/20 22:26:49;;;;;;;;;;;;;;;15.00;77.30;101846.72;10606555;28;19924;-68
2023/05/20 22:31:52;;;;;;;;;;;;;;;14.70;78.65;101847.56;10609072;28;20405;-67
2023/05/20 22:36:54;;;;;;;;;;;;;;;14.53;81.10;101845.88;10582756;28;19923;-67
2023/05/20 22:41:56;;;;;;;;;;;;;;;14.45;80.50;101846.31;10602117;28;19924;-67
2023/05/20 22:46:58;;;;;;;;;;;;;;;14.47;80.25;101841.81;10614208;28;19930;-67
2023/05/20 22:52:01;;;;;;;;;;;;;;;14.45;81.24;101840.19;10604960;28;20409;-68
2023/05/20 22:57:04;;;;;;;;;;;;;;;14.18;82.63;101835.56;10605757;28;20289;-67
2023/05/20 23:02:06;;;;;;;;;;;;;;;14.21;82.97;101824.84;10598563;27;20301;-68
2023/05/20 23:07:13;;;;;;;;;;;;;;;14.19;82.88;101823.22;10631192;27;20030;-67
2023/05/20 23:12:16;;;;;;;;;;;;;;;14.28;83.20;101814.81;10615908;27;19923;-67
2023/05/20 23:17:18;;;;;;;;;;;;;;;13.81;86.78;101811.25;10611967;27;19923;-67
2023/05/20 23:22:21;;;;;;;;;;;;;;;13.90;86.05;101808.13;10612724;27;19923;-67
2023/05/20 23:27:23;;;;;;;;;;;;;;;13.72;87.96;101810.00;10629865;27;19923;-68
2023/05/20 23:32:25;;;;;;;;;;;;;;;13.83;87.54;101805.91;10614336;27;19956;-67
2023/05/20 23:37:28;;;;;;;;;;;;;;;13.83;86.66;101803.28;10605394;27;19927;-68
2023/05/20 23:42:30;;;;;;;;;;;;;;;13.67;89.75;101800.66;10628429;27;19923;-68
2023/05/20 23:47:33;;;;;;;;;;;;;;;13.75;89.34;101796.66;10629662;27;19923;-68
2023/05/20 23:52:35;;;;;;;;;;;;;;;13.86;88.34;101797.84;10604627;27;19946;-67
2023/05/20 23:57:37;;;;;;;;;;;;;;;13.82;89.71;101793.69;10610363;27;20305;-67
